Ellerslie, Maryland
Current Conditions -  °F | °C
As of 7:14 AM on Thursday 23 Oct 2014 (Local Time) from KCBE Reporting Station
Overcast Overcast  
Wind Chill: 10°   Ceiling: 2500
Heat Index: 10°   Visibility: 10mi
Dew Point:   Wind: 12mph
Humidity: 71%   Direction: 330°NNW
Pressure: 30.07"   Gusts: 17mph
Location:  39.72°N, 78.77°W
Report Text: KCBE 231114Z AUTO 33010G15KT 10SM OVC025 10/05 A3007 RMK AO1
Loading
Personal Weather Stations






























Interactive Weather Map
Tropical Storm Tracking
New forecast layout! Learn more

10-Day Weather Forecast

Advertisements
Track Severe Weather on mobile